• Join FlightAware (Why Join?)
  • Login
  • US Flag 
05:54PM EDT


 

Airport Tracker/Info


-or-


 

Live Flight TrackerFlight Track Log ✈ N712WB ✈ 07-Jan-2014 ✈ KBZN - KHDC

Flight Track Log - Related Links

Times and Time Zones

All times are in EST time to prevent confusion due to time zone crossing. See the N712WB flight status page for this flight to view local times or setup timezone preferences in your user account.

Time Position Orientation Groundspeed Altitude Reporting Facility
EST Latitude Longitude Course Direction KTS MPH feet Rate Location/Type
01:42PM 45.7192 -111.0703 131° Southeast 241 277 7,900  Level Salt Lake Center
01:42PM 45.7083 -111.0522 131° Southeast 226 260 8,300 1,380 Climbing Salt Lake Center
01:43PM 45.6847 -111.0181 135° Southeast 234 269 8,900 1,800 Climbing Salt Lake Center
01:43PM 45.6631 -110.9569 117° Southeast 295 339 10,200 1,800 Climbing Salt Lake Center
01:44PM 45.6469 -110.8231 100° East 338 389 11,800 2,040 Climbing Salt Lake Center
01:45PM 45.5717 -110.7314 140° Southeast 355 409 14,500 2,220 Climbing Salt Lake Center
01:46PM 45.4844 -110.6503 147° Southeast 365 420 16,400 1,740 Climbing Salt Lake Center
01:47PM 45.3969 -110.5711 148° Southeast 376 433 18,100 1,680 Climbing Salt Lake Center
01:48PM 45.3064 -110.4856 146° Southeast 390 449 19,900 1,800 Climbing Salt Lake Center
01:49PM 45.2125 -110.4006 147° Southeast 399 459 21,900 1,920 Climbing Salt Lake Center
01:50PM 45.1003 -110.2975 147° Southeast 408 470 23,900 1,800 Climbing Salt Lake Center
01:51PM 45.0044 -110.2106 147° Southeast 424 488 25,600 1,860 Climbing Salt Lake Center
01:52PM 44.9097 -110.1147 144° Southeast 436 502 27,800 2,220 Climbing Salt Lake Center
01:53PM 44.8072 -109.9794 137° Southeast 449 517 30,200 2,160 Climbing Salt Lake Center
01:54PM 44.7144 -109.8614 138° Southeast 465 535 32,300 1,980 Climbing Salt Lake Center
01:55PM 44.6178 -109.7378 138° Southeast 474 545 34,300 2,220 Climbing Salt Lake Center
01:57PM 44.5150 -109.6047 137° Southeast 466 536 36,900 1,860 Climbing Salt Lake Center
01:58PM 44.4244 -109.4897 138° Southeast 460 529 38,200 960 Climbing Salt Lake Center
01:59PM 44.3089 -109.3458 138° Southeast 486 559 38,900 840 Climbing Salt Lake Center
02:00PM 44.2061 -109.2164 138° Southeast 498 573 40,000 960 Climbing Salt Lake Center
02:01PM 44.1036 -109.0889 138° Southeast 498 573 41,000 480 Climbing Salt Lake Center
02:02PM 43.9967 -108.9564 138° Southeast 512 589 41,000  Level Salt Lake Center
02:03PM 43.8856 -108.8194 138° Southeast 531 611 41,000  Level Salt Lake Center
02:04PM 43.7492 -108.6525 138° Southeast 545 627 41,000  Level Salt Lake Center
02:05PM 43.6353 -108.5119 138° Southeast 550 633 41,000  Level Salt Lake Center
02:06PM 43.5211 -108.3728 139° Southeast 551 634 41,000  Level Salt Lake Center
02:07PM 43.4222 -108.2144 131° Southeast 551 634 41,000  Level Salt Lake Center
02:08PM 43.3419 -108.0339 121° Southeast 555 639 41,000  Level Salt Lake Center
02:09PM 43.2611 -107.8544 122° Southeast 556 640 41,000  Level Salt Lake Center
02:10PM 43.1636 -107.6397 122° Southeast 555 639 41,000  Level Salt Lake Center
02:11PM 43.0836 -107.4614 122° Southeast 553 636 41,000  Level Salt Lake Center
02:12PM 43.0017 -107.2856 122° Southeast 552 635 41,000  Level Salt Lake Center
02:13PM 42.9206 -107.1069 122° Southeast 557 641 41,000  Level Salt Lake Center
02:14PM 42.8583 -106.9711 122° Southeast 553 636 41,000  Level Denver Center
02:15PM 42.7797 -106.8028 122° Southeast 552 635 41,000  Level Denver Center
02:16PM 42.6997 -106.6336 123° Southeast 555 639 41,000  Level Denver Center
02:17PM 42.6064 -106.4361 123° Southeast 557 641 41,000  Level Denver Center
02:18PM 42.5261 -106.2675 123° Southeast 558 642 41,000  Level Denver Center
02:19PM 42.4317 -106.0711 123° Southeast 558 642 41,000  Level Denver Center
02:20PM 42.3517 -105.9047 123° Southeast 554 638 41,000  Level Denver Center
02:21PM 42.2575 -105.7111 123° Southeast 553 636 41,000  Level Denver Center
02:22PM 42.1781 -105.5469 123° Southeast 549 632 41,000  Level Denver Center
02:23PM 42.0839 -105.3550 123° Southeast 552 635 41,000  Level Denver Center
02:24PM 42.0033 -105.1906 123° Southeast 553 636 41,000  Level Denver Center
02:25PM 41.9083 -104.9997 124° Southeast 553 636 41,000  Level Denver Center
02:26PM 41.8272 -104.8375 124° Southeast 552 635 41,000  Level Denver Center
02:27PM 41.7331 -104.6469 123° Southeast 552 635 41,000  Level Denver Center
02:28PM 41.6500 -104.4844 124° Southeast 555 639 41,000  Level Denver Center
02:29PM 41.5528 -104.2928 124° Southeast 560 644 41,000  Level Denver Center
02:30PM 41.4692 -104.1275 124° Southeast 563 648 41,000  Level Denver Center
02:31PM 41.3697 -103.9353 125° Southeast 565 650 41,100  Climbing Denver Center
02:32PM 41.2847 -103.7714 125° Southeast 563 648 41,000 -60 Descending Denver Center
02:33PM 41.1853 -103.5797 125° Southeast 566 651 41,000  Level Denver Center
02:34PM 41.1011 -103.4167 124° Southeast 562 647 41,000  Level Denver Center
02:35PM 41.0022 -103.2281 125° Southeast 558 642 41,000  Level Denver Center
02:36PM 40.9231 -103.0794 125° Southeast 556 640 41,000  Level Denver Center
02:37PM 40.8194 -102.8844 125° Southeast 555 639 41,000  Level Denver Center
02:38PM 40.7347 -102.7253 125° Southeast 555 639 41,000  Level Denver Center
02:39PM 40.6347 -102.5394 125° Southeast 556 640 41,000  Level Denver Center
02:41PM 40.5492 -102.3808 125° Southeast 556 640 41,000  Level Denver Center
02:42PM 40.4497 -102.1975 125° Southeast 554 638 41,000  Level Denver Center
02:43PM 40.3636 -102.0411 126° Southeast 554 638 41,000  Level Denver Center
02:44PM 40.2781 -101.8836 125° Southeast 556 640 41,000  Level Denver Center
02:45PM 40.1767 -101.7011 126° Southeast 557 641 41,000  Level Denver Center
02:46PM 40.0906 -101.5450 126° Southeast 557 641 41,000  Level Denver Center
02:47PM 39.9897 -101.3642 126° Southeast 555 639 41,000  Level Denver Center
02:48PM 39.9028 -101.2086 126° Southeast 557 641 41,000  Level Denver Center
02:49PM 39.8017 -101.0292 126° Southeast 555 639 41,000  Level Denver Center
02:50PM 39.7139 -100.8744 126° Southeast 556 640 41,000  Level Denver Center
02:51PM 39.6114 -100.6947 126° Southeast 555 639 41,000  Level Denver Center
02:52PM 39.5233 -100.5403 126° Southeast 557 641 41,000  Level Denver Center
02:53PM 39.4200 -100.3619 127° Southeast 557 641 41,000  Level Denver Center
02:54PM 39.3314 -100.2089 127° Southeast 556 640 41,000  Level Denver Center
02:55PM 39.2275 -100.0314 127° Southeast 557 641 41,000  Level Denver Center
02:56PM 39.1350 -99.8722 127° Southeast 559 643 41,000  Level Denver Center
02:57PM 39.0447 -99.7211 128° Southeast 557 641 41,000  Level Denver Center
02:58PM 38.9397 -99.5417 127° Southeast 559 643 41,000  Level Denver Center
02:59PM 38.8492 -99.3900 127° Southeast 559 643 41,000  Level Denver Center
03:00PM 38.7439 -99.2128 127° Southeast 560 644 41,000  Level Denver Center
03:01PM 38.6225 -99.0100 127° Southeast 558 642 41,000  Level Kansas City Center
03:03PM 38.5264 -98.8531 128° Southeast 559 643 41,000  Level Kansas City Center
03:04PM 38.4314 -98.6964 128° Southeast 560 644 41,000  Level Kansas City Center
03:05PM 38.3353 -98.5406 128° Southeast 559 643 41,000  Level Kansas City Center
03:06PM 38.2403 -98.3842 128° Southeast 560 644 41,000  Level Kansas City Center
03:07PM 38.1256 -98.1961 128° Southeast 561 646 41,000  Level Kansas City Center
03:08PM 38.0406 -98.0578 128° Southeast 559 643 41,000  Level Kansas City Center
03:09PM 37.9422 -97.9022 129° Southeast 560 644 41,000  Level Kansas City Center
03:10PM 37.8272 -97.7167 128° Southeast 559 643 41,000  Level Kansas City Center
03:11PM 37.7281 -97.5650 130° Southeast 558 642 41,000  Level Kansas City Center
03:12PM 37.6103 -97.4292 138° Southeast 570 656 41,000  Level Kansas City Center
03:13PM 37.4978 -97.2975 137° Southeast 553 636 41,000  Level Kansas City Center
03:14PM 37.3850 -97.1667 137° Southeast 552 635 41,000  Level Kansas City Center
03:15PM 37.2728 -97.0372 137° Southeast 550 633 41,000  Level Kansas City Center
03:16PM 37.1567 -96.9078 138° Southeast 547 629 41,000  Level Kansas City Center
03:17PM 37.0475 -96.7825 137° Southeast 546 628 41,000  Level Kansas City Center
03:18PM 36.9086 -96.6269 138° Southeast 548 631 41,000  Level Kansas City Center
03:19PM 36.7989 -96.4967 136° Southeast 545 627 41,000  Level Kansas City Center
03:20PM 36.6853 -96.3706 138° Southeast 545 627 41,000  Level Kansas City Center
03:21PM 36.5717 -96.2433 138° Southeast 548 631 41,000  Level Kansas City Center
03:22PM 36.4592 -96.1186 138° Southeast 546 628 41,000  Level Kansas City Center
03:23PM 36.3475 -95.9933 138° Southeast 545 627 41,000  Level Kansas City Center
03:24PM 36.2139 -95.8464 138° Southeast 542 624 41,000  Level Kansas City Center
03:25PM 36.1131 -95.7361 139° Southeast 540 621 41,000  Level Kansas City Center
03:26PM 35.9917 -95.6025 138° Southeast 539 620 41,000  Level Kansas City Center
03:27PM 35.8800 -95.4811 139° Southeast 538 619 41,000  Level Kansas City Center
03:28PM 35.7678 -95.3583 138° Southeast 540 621 41,000  Level Kansas City Center
03:29PM 35.6550 -95.2372 139° Southeast 540 621 41,000  Level Kansas City Center
03:30PM 35.5856 -95.1631 139° Southeast 540 621 41,000  Level Memphis Center
03:31PM 35.4731 -95.0408 138° Southeast 541 623 41,000  Level Memphis Center
03:32PM 35.3600 -94.9189 139° Southeast 542 624 41,000  Level Memphis Center
03:33PM 35.2469 -94.7975 139° Southeast 541 623 41,000  Level Memphis Center
03:34PM 35.1103 -94.6533 139° Southeast 541 623 41,000  Level Memphis Center
03:35PM 34.9953 -94.5311 139° Southeast 539 620 41,000  Level Memphis Center
03:36PM 34.8819 -94.4117 139° Southeast 541 623 41,000  Level Memphis Center
03:37PM 34.7692 -94.2928 139° Southeast 539 620 41,000  Level Memphis Center
03:38PM 34.6558 -94.1744 139° Southeast 539 620 41,000  Level Memphis Center
03:39PM 34.5350 -94.0467 139° Southeast 539 620 41,000  Level Memphis Center
03:40PM 34.4081 -93.9153 139° Southeast 538 619 41,000  Level Memphis Center
03:41PM 34.3067 -93.8111 140° Southeast 537 618 41,000  Level Memphis Center
03:42PM 34.1936 -93.6939 139° Southeast 536 617 41,000  Level Memphis Center
03:43PM 34.0561 -93.5531 140° Southeast 537 618 41,000  Level Memphis Center
03:44PM 33.9411 -93.4356 140° Southeast 539 620 41,000  Level Memphis Center
03:45PM 33.8253 -93.3169 140° Southeast 541 623 41,000  Level Memphis Center
03:46PM 33.7089 -93.1986 140° Southeast 544 626 41,000  Level Memphis Center
03:47PM 33.5919 -93.0819 140° Southeast 545 627 41,000  Level Memphis Center
03:48PM 33.4758 -92.9636 140° Southeast 545 627 41,000  Level Memphis Center
03:49PM 33.3586 -92.8464 140° Southeast 545 627 41,000  Level Memphis Center
03:50PM 33.2419 -92.7317 141° Southeast 545 627 41,000  Level Memphis Center
03:51PM 33.0964 -92.6019 143° Southeast 543 625 41,000  Level Memphis Center
03:53PM 32.9747 -92.4961 144° Southeast 542 624 41,000  Level Memphis Center
03:54PM 32.8528 -92.3894 144° Southeast 543 625 41,000  Level Memphis Center
03:55PM 32.6917 -92.2494 144° Southeast 539 620 41,000  Level Houston Center
03:56PM 32.5700 -92.1433 144° Southeast 534 615 41,000  Level Fort Worth Center
03:57PM 32.4261 -92.0172 143° Southeast 535 616 41,000  Level Fort Worth Center
03:58PM 32.3300 -91.9381 145° Southeast 532 612 41,000  Level Houston Center
03:59PM 32.2083 -91.8328 144° Southeast 538 619 41,000 -1,560 Level Houston Center
04:00PM 32.0650 -91.7106 144° Southeast 531 611 37,800 -2,880 Descending Houston Center
04:01PM 31.9475 -91.6106 144° Southeast 522 601 35,100 -2,700 Descending Houston Center
04:02PM 31.8300 -91.5117 144° Southeast 522 601 32,300 -2,760 Descending Houston Center
04:03PM 31.7144 -91.4136 144° Southeast 516 594 29,500 -2,700 Descending Houston Center
04:04PM 31.6008 -91.3183 144° Southeast 508 585 26,700 -2,640 Descending Houston Center
04:05PM 31.4964 -91.2300 144° Southeast 476 548 24,100 -1,440 Descending Houston Center
04:06PM 31.3697 -91.1225 144° Southeast 468 539 23,800 -1,500 Descending Houston Center
04:07PM 31.2694 -91.0383 144° Southeast 454 522 21,100 -2,700 Descending Houston Center
04:08PM 31.1703 -90.9564 145° Southeast 442 509 18,300 -2,700 Descending Houston Center
04:09PM 31.0733 -90.8733 144° Southeast 435 501 15,600 -2,640 Descending Houston Center
04:10PM 30.9786 -90.7967 145° Southeast 420 483 12,900 -2,760 Descending Houston Center
04:11PM 30.9392 -90.7650 145° Southeast 365 420 11,800 -2,520 Descending Houston Center
04:11PM 30.8856 -90.7183 143° Southeast 357 411 10,500 -2,040 Descending Houston Center
04:11PM 30.8808 -90.7156 153° Southeast 369 425 10,400 -1,620 Descending Houston Center
04:12PM 30.8131 -90.6606 145° Southeast 305 351 8,900 -1,560 Descending Houston Center
04:12PM 30.8089 -90.6578 150° Southeast 330 380 8,800 -2,400 Descending Houston Center
04:13PM 30.7472 -90.6169 150° Southeast 265 305 6,500 -1,860 Descending Houston Center
04:14PM 30.7372 -90.6186 188° South 291 335 6,900 -2,100 Climbing Houston Center
04:14PM 30.6772 -90.5858 155° Southeast 260 299 4,400 -1,980 Descending Houston Center
04:15PM 30.6239 -90.5417 145° Southeast 225 259 3,200 -1,200 Descending Houston Center